Accueil
METAR-TAF:

METAR-TAF

Aéroports :

Aéroport d'Hassi R'Mel - Tilrhemt

Hassi R'mel, Algérie

latitude: 32-55-48N, longitude: 003-18-44E, altitude: 774 m

Observation

Le bulletin a été fait il y a 1 heure et 1 minutes, à 07:00 UTC
Vent 4 kt de est/sud-est
Température 22°C
Humidité 46%
Pression 1019 hPa
Visibilité 10 km ou plus
Quelques nuages à une hauteur de 4600 ft
Nuages épars à une hauteur de 10000 ft

METAR: DAFH 290700Z 12004KT 9999 FEW046 SCT100 22/10 Q1019

Heure: 09:01 (08:01 UTC)

Prévision

Le bulletin a été fait il y a 15 heures et 1 minutes, à 17:00 UTC
Prévision valable du 28 à 18 UTC au 29 à 03 UTC
Vent 14 kt de sud-est
Visibilité: 8000 m
Nuages épars à une hauteur de 4000 ft
Nuages épars à une hauteur de 10000 ft
Probabilité 30% :
Temporairement
du 28 à 18 UTC au 28 à 21 UTC
Quelques nuages à une hauteur de 3300 ft, Cumulonimbus.

TAF: DAFH 281700Z 2818/2903 13014KT 8000 SCT040 SCT100 PROB30 TEMPO 2818/2821 FEW033CB

Observations et prévisions météorologiques de plus de 4000 aéroports (messages METAR et TAF).

Les stations disponibles sont représentées par des disques jaunes et rouges sur la carte.

Passer la souris dessus pour voir le nom de la station.

Cliquer dessus pour voir les observations et prévisions météorologiques.

Pour changer de carte: cliquez sur les boutons verts avec une croix noire pour zoomer, sur le bouton vert avec un tiret pour effectuer un zoom arrière, ou sur les flèches vertes pour les cartes adjacentes.


METAR-TAF: